SIS57 KLAX-BIRK
Flight info
| Callsign | SIS57 |
|---|---|
| Flight time | N/A |
| Altitude | 35000 |
| Route | ORCKA5 LAS DCT BCE DCT VEL DCT KUOCA DCT ODDLL/N0477F370 DCT TIMMR DCT GYMBG DCT ZOMTA DCT SIDPO DCT FERNO DCT 54N090W DCT YER DCT YPX/N0473F390 DCT BERUS/M083F390 DCT EMBOK DCT 65N050W 66N040W 66N030W DCT INDES DCT INGAN INGAN2N |
| Aircraft | GLF5/M-SFGHIRWXY/S |
Departure
| Time | 2026-04-26 19:10 |
|---|---|
| Airport | Los Angeles International Airport (KLAX) |
Arrival
| Time | N/A |
|---|---|
| Airport | Reykjavík Domestic Airport (BIRK) |
| Time | Latitude | Longitude | Altitude | Speed | Heading |
|---|---|---|---|---|---|
| 2026-04-26 18:47 | 33.93380 | -118.39877 | 119 ft | 0 kts | 172° |
| 2026-04-26 19:05 | 33.93351 | -118.39832 | 121 ft | 4 kts | 73° |
| 2026-04-26 19:05 | 33.93382 | -118.39809 | 119 ft | 6 kts | 7° |
| 2026-04-26 19:05 | 33.93441 | -118.39814 | 117 ft | 9 kts | 18° |
| 2026-04-26 19:06 | 33.93465 | -118.39726 | 115 ft | 15 kts | 83° |
| 2026-04-26 19:06 | 33.93482 | -118.39558 | 112 ft | 25 kts | 83° |
| 2026-04-26 19:06 | 33.93504 | -118.39346 | 110 ft | 25 kts | 84° |
| 2026-04-26 19:06 | 33.93525 | -118.39142 | 108 ft | 23 kts | 82° |
| 2026-04-26 19:07 | 33.93545 | -118.38951 | 107 ft | 21 kts | 83° |
| 2026-04-26 19:07 | 33.93562 | -118.38778 | 107 ft | 20 kts | 83° |
| 2026-04-26 19:07 | 33.93578 | -118.38617 | 106 ft | 18 kts | 83° |
| 2026-04-26 19:07 | 33.93593 | -118.38472 | 105 ft | 16 kts | 83° |
| 2026-04-26 19:08 | 33.93605 | -118.38358 | 104 ft | 10 kts | 83° |
| 2026-04-26 19:08 | 33.93610 | -118.38308 | 104 ft | 3 kts | 83° |
| 2026-04-26 19:08 | 33.93620 | -118.38284 | 103 ft | 2 kts | 39° |
| 2026-04-26 19:08 | 33.93640 | -118.38275 | 103 ft | 5 kts | 7° |
| 2026-04-26 19:09 | 33.93703 | -118.38282 | 104 ft | 7 kts | 354° |
| 2026-04-26 19:09 | 33.93734 | -118.38312 | 104 ft | 4 kts | 278° |
| 2026-04-26 19:09 | 33.93724 | -118.38402 | 104 ft | 28 kts | 262° |
| 2026-04-26 19:09 | 33.93668 | -118.38950 | 108 ft | 102 kts | 263° |
| 2026-04-26 19:10 | 33.93570 | -118.40028 | 304 ft | 147 kts | 265° |
| 2026-04-26 19:10 | 33.93534 | -118.41303 | 897 ft | 168 kts | 266° |
| 2026-04-26 19:10 | 33.93509 | -118.42747 | 1700 ft | 183 kts | 267° |
| 2026-04-26 19:10 | 33.93540 | -118.44239 | 2582 ft | 179 kts | 269° |
| 2026-04-26 19:11 | 33.93443 | -118.45771 | 3157 ft | 192 kts | 257° |
| 2026-04-26 19:11 | 33.92924 | -118.47274 | 3747 ft | 204 kts | 250° |
| 2026-04-26 19:11 | 33.92527 | -118.48912 | 4454 ft | 211 kts | 245° |
| 2026-04-26 19:11 | 33.91489 | -118.50222 | 5007 ft | 228 kts | 214° |
| 2026-04-26 19:12 | 33.89853 | -118.50691 | 5223 ft | 266 kts | 173° |
| 2026-04-26 19:12 | 33.88166 | -118.49721 | 6004 ft | 279 kts | 137° |
| 2026-04-26 19:12 | 33.87210 | -118.47707 | 6777 ft | 288 kts | 101° |
| 2026-04-26 19:12 | 33.87366 | -118.45321 | 7588 ft | 292 kts | 68° |
| 2026-04-26 19:13 | 33.88565 | -118.43406 | 8418 ft | 291 kts | 33° |
| 2026-04-26 19:13 | 33.90418 | -118.42587 | 9236 ft | 289 kts | 0° |
| 2026-04-26 19:13 | 33.92372 | -118.42780 | 10048 ft | 290 kts | 358° |
| 2026-04-26 19:13 | 33.94429 | -118.42210 | 10233 ft | 326 kts | 26° |
| 2026-04-26 19:14 | 33.96168 | -118.40326 | 10545 ft | 353 kts | 55° |
| 2026-04-26 19:14 | 33.97089 | -118.37545 | 11134 ft | 365 kts | 75° |
| 2026-04-26 19:14 | 33.98107 | -118.34766 | 11757 ft | 372 kts | 54° |
| 2026-04-26 19:14 | 33.98600 | -118.33910 | 12004 ft | 373 kts | 53° |
| 2026-04-26 19:15 | 34.01061 | -118.29583 | 13206 ft | 385 kts | 53° |
| 2026-04-26 19:15 | 34.02580 | -118.26906 | 13944 ft | 391 kts | 53° |
| 2026-04-26 19:15 | 34.04113 | -118.24205 | 14678 ft | 397 kts | 53° |
| 2026-04-26 19:15 | 34.05633 | -118.21520 | 15401 ft | 402 kts | 53° |
| 2026-04-26 19:16 | 34.07221 | -118.18716 | 16131 ft | 407 kts | 53° |
| 2026-04-26 19:16 | 34.08799 | -118.15926 | 16831 ft | 412 kts | 53° |
| 2026-04-26 19:16 | 34.10447 | -118.13011 | 17544 ft | 418 kts | 53° |
| 2026-04-26 19:16 | 34.12092 | -118.10098 | 18247 ft | 423 kts | 53° |
| 2026-04-26 19:17 | 34.13748 | -118.07163 | 19005 ft | 429 kts | 53° |
| 2026-04-26 19:17 | 34.15432 | -118.04176 | 19751 ft | 435 kts | 53° |
| 2026-04-26 19:17 | 34.17139 | -118.01143 | 20447 ft | 441 kts | 53° |
| 2026-04-26 19:17 | 34.18850 | -117.98102 | 21092 ft | 445 kts | 53° |
| 2026-04-26 19:18 | 34.20597 | -117.94995 | 21712 ft | 450 kts | 53° |
| 2026-04-26 19:18 | 34.22381 | -117.91821 | 22329 ft | 454 kts | 53° |
| 2026-04-26 19:18 | 34.24136 | -117.88699 | 22974 ft | 459 kts | 53° |
| 2026-04-26 19:18 | 34.25948 | -117.85468 | 23621 ft | 464 kts | 53° |
| 2026-04-26 19:19 | 34.27747 | -117.82256 | 24245 ft | 469 kts | 53° |
| 2026-04-26 19:19 | 34.29597 | -117.78952 | 24877 ft | 474 kts | 53° |
| 2026-04-26 19:19 | 34.31427 | -117.75680 | 25472 ft | 479 kts | 53° |
| 2026-04-26 19:19 | 34.33320 | -117.72292 | 26048 ft | 484 kts | 53° |
| 2026-04-26 19:20 | 34.35210 | -117.68924 | 26599 ft | 489 kts | 52° |
| 2026-04-26 19:20 | 34.36530 | -117.66714 | 26953 ft | 492 kts | 51° |
| 2026-04-26 19:20 | 34.39216 | -117.62231 | 27638 ft | 499 kts | 51° |
| 2026-04-26 19:20 | 34.41280 | -117.58775 | 28130 ft | 505 kts | 51° |
| 2026-04-26 19:21 | 34.43325 | -117.55347 | 28611 ft | 511 kts | 51° |
| 2026-04-26 19:21 | 34.45417 | -117.51837 | 29094 ft | 516 kts | 51° |
| 2026-04-26 19:21 | 34.47529 | -117.48290 | 29592 ft | 521 kts | 51° |
| 2026-04-26 19:21 | 34.49663 | -117.44701 | 30098 ft | 526 kts | 51° |
| 2026-04-26 19:22 | 34.51796 | -117.41112 | 30561 ft | 531 kts | 51° |
| 2026-04-26 19:22 | 34.53959 | -117.37466 | 31057 ft | 535 kts | 51° |
| 2026-04-26 19:22 | 34.56148 | -117.33775 | 31578 ft | 536 kts | 52° |
| 2026-04-26 19:22 | 34.58368 | -117.30026 | 32071 ft | 537 kts | 52° |
| 2026-04-26 19:23 | 34.60533 | -117.26366 | 32555 ft | 538 kts | 52° |
| 2026-04-26 19:23 | 34.62709 | -117.22686 | 33023 ft | 538 kts | 52° |
| 2026-04-26 19:23 | 34.64888 | -117.18994 | 33480 ft | 539 kts | 52° |
| 2026-04-26 19:23 | 34.67079 | -117.15280 | 33928 ft | 539 kts | 52° |
| 2026-04-26 19:24 | 34.69241 | -117.11612 | 34355 ft | 540 kts | 52° |
| 2026-04-26 19:24 | 34.71445 | -117.07867 | 34778 ft | 540 kts | 52° |
| 2026-04-26 19:24 | 34.75795 | -117.00464 | 35563 ft | 540 kts | 52° |
| 2026-04-26 19:25 | 34.77954 | -116.96783 | 35937 ft | 539 kts | 52° |
| 2026-04-26 19:25 | 34.78699 | -116.95513 | 36062 ft | 539 kts | 52° |
| 2026-04-26 19:25 | 34.82320 | -116.89331 | 36615 ft | 540 kts | 52° |
| 2026-04-26 19:25 | 34.84482 | -116.85635 | 36944 ft | 540 kts | 52° |
| 2026-04-26 19:26 | 34.86657 | -116.81915 | 37256 ft | 540 kts | 52° |
| 2026-04-26 19:26 | 34.88815 | -116.78215 | 37560 ft | 540 kts | 52° |
| 2026-04-26 19:26 | 34.90983 | -116.74499 | 37849 ft | 540 kts | 52° |
| 2026-04-26 19:26 | 34.93328 | -116.70977 | 38088 ft | 537 kts | 44° |
| 2026-04-26 19:27 | 34.95898 | -116.67632 | 38377 ft | 537 kts | 43° |
| 2026-04-26 19:27 | 34.98416 | -116.64328 | 38637 ft | 537 kts | 44° |
| 2026-04-26 19:27 | 35.00971 | -116.60966 | 38901 ft | 538 kts | 44° |
| 2026-04-26 19:27 | 35.03504 | -116.57628 | 38911 ft | 545 kts | 44° |
| 2026-04-26 19:28 | 35.08698 | -116.50770 | 38923 ft | 555 kts | 44° |
| 2026-04-26 19:28 | 35.13971 | -116.43792 | 38898 ft | 554 kts | 44° |
| 2026-04-26 19:29 | 35.19158 | -116.36916 | 38893 ft | 550 kts | 44° |
| 2026-04-26 19:29 | 35.24341 | -116.30032 | 38884 ft | 548 kts | 44° |
| 2026-04-26 19:30 | 35.29449 | -116.23231 | 38897 ft | 549 kts | 44° |
| 2026-04-26 19:30 | 35.33756 | -116.17488 | 38893 ft | 549 kts | 44° |
| 2026-04-26 19:31 | 35.39757 | -116.09470 | 38897 ft | 549 kts | 45° |
| 2026-04-26 19:31 | 35.44920 | -116.02555 | 38905 ft | 548 kts | 45° |
| 2026-04-26 19:32 | 35.50036 | -115.95689 | 38921 ft | 548 kts | 45° |
| 2026-04-26 19:32 | 35.55157 | -115.88803 | 38927 ft | 548 kts | 45° |
| 2026-04-26 19:33 | 35.60305 | -115.81866 | 38916 ft | 548 kts | 45° |
| 2026-04-26 19:33 | 35.65405 | -115.74936 | 38911 ft | 548 kts | 45° |
| 2026-04-26 19:34 | 35.70478 | -115.67963 | 38867 ft | 547 kts | 45° |
| 2026-04-26 19:34 | 35.75547 | -115.60984 | 38779 ft | 547 kts | 45° |
| 2026-04-26 19:35 | 35.80588 | -115.54028 | 38623 ft | 548 kts | 45° |
| 2026-04-26 19:35 | 35.83134 | -115.50510 | 38519 ft | 549 kts | 45° |
| 2026-04-26 19:35 | 35.85702 | -115.46957 | 38439 ft | 547 kts | 45° |
| 2026-04-26 19:36 | 35.89019 | -115.42363 | 38548 ft | 544 kts | 45° |
| 2026-04-26 19:36 | 35.93219 | -115.36537 | 38731 ft | 547 kts | 45° |
| 2026-04-26 19:36 | 35.95732 | -115.33047 | 38813 ft | 549 kts | 46° |
| 2026-04-26 19:37 | 36.00805 | -115.25987 | 38895 ft | 552 kts | 46° |
| 2026-04-26 19:37 | 36.05887 | -115.18903 | 38877 ft | 549 kts | 46° |
| 2026-04-26 19:38 | 36.10563 | -115.11588 | 38878 ft | 546 kts | 52° |
| 2026-04-26 19:38 | 36.15017 | -115.03982 | 38860 ft | 545 kts | 52° |
| 2026-04-26 19:39 | 36.19461 | -114.96383 | 38855 ft | 546 kts | 52° |
| 2026-04-26 19:39 | 36.23939 | -114.88710 | 38848 ft | 547 kts | 52° |
| 2026-04-26 19:40 | 36.28375 | -114.81091 | 38843 ft | 547 kts | 52° |
| 2026-04-26 19:40 | 36.32815 | -114.73449 | 38844 ft | 548 kts | 52° |
| 2026-04-26 19:41 | 36.37279 | -114.65749 | 38836 ft | 547 kts | 52° |
| 2026-04-26 19:41 | 36.40225 | -114.60658 | 38829 ft | 547 kts | 52° |
| 2026-04-26 19:42 | 36.46128 | -114.50433 | 38825 ft | 548 kts | 52° |
| 2026-04-26 19:42 | 36.50597 | -114.42670 | 38832 ft | 548 kts | 52° |
| 2026-04-26 19:43 | 36.55004 | -114.35001 | 38840 ft | 548 kts | 52° |
| 2026-04-26 19:43 | 36.59431 | -114.27277 | 38833 ft | 548 kts | 53° |
| 2026-04-26 19:44 | 36.63824 | -114.19595 | 38838 ft | 548 kts | 53° |
| 2026-04-26 19:44 | 36.68250 | -114.11839 | 38836 ft | 548 kts | 53° |
| 2026-04-26 19:45 | 36.72634 | -114.04137 | 38834 ft | 548 kts | 53° |
| 2026-04-26 19:45 | 36.77040 | -113.96381 | 38840 ft | 548 kts | 53° |
| 2026-04-26 19:46 | 36.81403 | -113.88683 | 38857 ft | 547 kts | 53° |
| 2026-04-26 19:46 | 36.85809 | -113.80889 | 38878 ft | 547 kts | 53° |
| 2026-04-26 19:47 | 36.88728 | -113.75717 | 38897 ft | 547 kts | 53° |
| 2026-04-26 19:47 | 36.94541 | -113.65392 | 38893 ft | 547 kts | 53° |
| 2026-04-26 19:48 | 36.98921 | -113.57591 | 38877 ft | 546 kts | 53° |
| 2026-04-26 19:48 | 37.03248 | -113.49868 | 38873 ft | 545 kts | 53° |
| 2026-04-26 19:49 | 37.07560 | -113.42154 | 38896 ft | 544 kts | 53° |
| 2026-04-26 19:49 | 37.11910 | -113.34354 | 38906 ft | 544 kts | 54° |
| 2026-04-26 19:50 | 37.16180 | -113.26678 | 38899 ft | 543 kts | 54° |
| 2026-04-26 19:50 | 37.20504 | -113.18890 | 38921 ft | 543 kts | 54° |
| 2026-04-26 19:51 | 37.24808 | -113.11117 | 38980 ft | 543 kts | 54° |
| 2026-04-26 19:51 | 37.29104 | -113.03342 | 39041 ft | 544 kts | 54° |
| 2026-04-26 19:52 | 37.31258 | -112.99436 | 38879 ft | 547 kts | 54° |
| 2026-04-26 19:52 | 37.33423 | -112.95507 | 38783 ft | 545 kts | 54° |
| 2026-04-26 19:52 | 37.37730 | -112.87674 | 38682 ft | 543 kts | 54° |
| 2026-04-26 19:53 | 37.42034 | -112.79829 | 38468 ft | 545 kts | 54° |
| 2026-04-26 19:53 | 37.46286 | -112.72062 | 38478 ft | 539 kts | 54° |
| 2026-04-26 19:54 | 37.48419 | -112.68157 | 38697 ft | 537 kts | 54° |
| 2026-04-26 19:54 | 37.50526 | -112.64296 | 38951 ft | 538 kts | 54° |
| 2026-04-26 19:54 | 37.54803 | -112.56445 | 39026 ft | 547 kts | 54° |
| 2026-04-26 19:55 | 37.59118 | -112.48507 | 38978 ft | 547 kts | 54° |
| 2026-04-26 19:55 | 37.63370 | -112.40665 | 38960 ft | 542 kts | 54° |
| 2026-04-26 19:56 | 37.67617 | -112.32819 | 38932 ft | 541 kts | 54° |
| 2026-04-26 19:56 | 37.70063 | -112.29258 | 38930 ft | 537 kts | 39° |
| 2026-04-26 19:56 | 37.72954 | -112.26347 | 38948 ft | 536 kts | 35° |
| 2026-04-26 19:57 | 37.78837 | -112.20522 | 38933 ft | 538 kts | 36° |
| 2026-04-26 19:57 | 37.84697 | -112.14673 | 38925 ft | 538 kts | 36° |
| 2026-04-26 19:58 | 37.90538 | -112.08829 | 38895 ft | 537 kts | 36° |
| 2026-04-26 19:58 | 37.96397 | -112.02953 | 38869 ft | 536 kts | 36° |
| 2026-04-26 19:59 | 38.02245 | -111.97076 | 38848 ft | 536 kts | 36° |
| 2026-04-26 19:59 | 38.08094 | -111.91187 | 38870 ft | 536 kts | 36° |
| 2026-04-26 20:00 | 38.13911 | -111.85318 | 38883 ft | 536 kts | 36° |
| 2026-04-26 20:00 | 38.19752 | -111.79411 | 38897 ft | 536 kts | 36° |
| 2026-04-26 20:01 | 38.25590 | -111.73495 | 38905 ft | 536 kts | 36° |
| 2026-04-26 20:01 | 38.31383 | -111.67612 | 38911 ft | 536 kts | 36° |
| 2026-04-26 20:02 | 38.37215 | -111.61678 | 38912 ft | 535 kts | 36° |
| 2026-04-26 20:02 | 38.42071 | -111.56728 | 38910 ft | 535 kts | 36° |
| 2026-04-26 20:03 | 38.48831 | -111.49821 | 38897 ft | 535 kts | 36° |
| 2026-04-26 20:03 | 38.51730 | -111.46854 | 38760 ft | 538 kts | 36° |
| 2026-04-26 20:03 | 38.54651 | -111.43861 | 38613 ft | 537 kts | 36° |
| 2026-04-26 20:04 | 38.60426 | -111.37934 | 38539 ft | 532 kts | 36° |
| 2026-04-26 20:04 | 38.66151 | -111.32046 | 38759 ft | 530 kts | 37° |
| 2026-04-26 20:05 | 38.71907 | -111.26114 | 38836 ft | 536 kts | 37° |
| 2026-04-26 20:05 | 38.77725 | -111.20104 | 38853 ft | 535 kts | 37° |
| 2026-04-26 20:06 | 38.83498 | -111.14128 | 38887 ft | 533 kts | 37° |
| 2026-04-26 20:06 | 38.89271 | -111.08140 | 38893 ft | 532 kts | 37° |
| 2026-04-26 20:07 | 38.94980 | -111.02206 | 38879 ft | 532 kts | 37° |
| 2026-04-26 20:07 | 39.00747 | -110.96197 | 38857 ft | 532 kts | 37° |
| 2026-04-26 20:08 | 39.06465 | -110.90228 | 38853 ft | 532 kts | 37° |
| 2026-04-26 20:08 | 39.12163 | -110.84266 | 38833 ft | 531 kts | 37° |
| 2026-04-26 20:09 | 39.17936 | -110.78212 | 38819 ft | 531 kts | 37° |
| 2026-04-26 20:09 | 39.23671 | -110.72186 | 38801 ft | 531 kts | 37° |
| 2026-04-26 20:10 | 39.29383 | -110.66171 | 38761 ft | 530 kts | 37° |
| 2026-04-26 20:10 | 39.35095 | -110.60142 | 38725 ft | 530 kts | 37° |